Главная страница
METAR-TAF:

METAR-TAF

Аэропорты :

Дебрецен, Венгрия

широта: 47-29N, долгота: 021-36E, высота над уровнем моря: 108 м

Текущие метеонаблюдения

Эта сводка был подготовлена 50 минут назад, в 22:15 UTC
Ветер 4 Узел от юго-юго-восточный
Температура 15°C
Влажность 67%
Давление 1017 hPa
Видимость: 9000 м

METAR: LHDC 252215Z AUTO 15004KT 9000 NCD 15/09 Q1017 NOSIG

Время: 01:05 (23:05 UTC)

Прогноз

Эта сводка был подготовлена 2 часа и 50 минут назад, в 20:15 UTC
Прогноз действительный с 25-го 21 UTC до 26-го 06 UTC
Ветер 6 Узел от южный
Видимость 10 км и более
Нет облачности ниже 1500 м, и нет кучево-дождевой облачности

TAF: LHDC 252015Z 2521/2606 18006KT CAVOK

Метеонаблюдения и прогнозы для более 4000 аэропортов (сводки METAR и TAF).

Имеющиеся станции представлены на карте желтыми и красными точками.

Чтобы увидеть название станции, наведите на нее мышь.

Затем щелкните, чтобы увидеть метеонаблюдения и метеопрогнозы.

Управление картой: чтобы увеличить масштаб, щелкните зеленые кнопки с черным крестиком; чтобы уменьшить масштаб, щелкните зеленую кнопку с тире; для просмотра соседних карт щелкайте зеленые стрелки.


METAR-TAF: